默认 日期 大小 文件数 浏览量 最新下载 xml
25 01 19磁力链接相关资源由用户搜索指令自动获取,结果来源于网络,本站不存储任何资料,亦不承担任何责任,请于24小时内删除,搜索到978个磁力,用时34ms。
    {"dorcelclub.19.01.25.aysha.initiated.by.india.summer.mp4": 159424538}
创建时间: 2019-01-27 12:16:21 大小:152.04 MB 文件数量:1 热度:24 最近下载:2025-08-26 20:28:02
    ... .19.01.25.G199.Ziggy.Star.XXX.XviD-iPT Team.avi": 1050396084, "GangbangCreampie.19.01.25 ...
创建时间: 2019-01-27 12:19:34 大小:1004.67 MB 文件数量:13 热度:20 最近下载:2025-07-09 15:49:01
    {"myfirstsexteacher.19.01.25.ryder.skye[N1C].mp4": 3614675772}
创建时间: 2019-01-27 12:28:36 大小:3.37 GB 文件数量:1 热度:32 最近下载:2025-09-19 20:32:01
    {"RARBG.txt": 30, "RARBG_DO_NOT_MIRROR.exe": 99, "alsscan.19.01.25.kelsey.kage.out.of.breath.mp4": 1561388592, "alsscan.19.01.25.kelsey.kage.out.of.breath.nfo": 5194}
创建时间: 2019-01-27 12:32:39 大小:1.45 GB 文件数量:4 热度:15 最近下载:2025-06-28 04:53:01
    {"RARBG.txt": 30, "RARBG_DO_NOT_MIRROR.exe": 99, "hitzefrei.19.01.25.lilli.vanilli.dr.lust.cum.on.the.nurse.de.mp4": 1929213270, "hitzefrei.19.01.25.lilli.vanilli.dr.lust.cum.on.the.nurse.de.nfo": 5215}
创建时间: 2019-01-27 12:33:15 大小:1.8 GB 文件数量:4 热度:44 最近下载:2025-09-28 23:03:08
    ... .19.01.25.Cadence.Lux.XXX.XviD-iPT Team.avi": 588311962, "TonightsGirlfriend.19.01.25.Cadence ...
创建时间: 2019-01-27 12:44:29 大小:563.53 MB 文件数量:12 热度:24 最近下载:2025-09-12 21:26:04
    {"RARBG.txt": 30, "RARBG_DO_NOT_MIRROR.exe": 99, "brownbunnies.19.01.25.osa.lovely.mp4": 2244653772, "brownbunnies.19.01.25.osa.lovely.nfo": 5189}
创建时间: 2019-01-27 12:44:52 大小:2.09 GB 文件数量:4 热度:25 最近下载:2025-09-13 18:04:02
    {"shotherfirst.19.01.25.kikki.star[N1C].mp4": 3252967394}
创建时间: 2019-01-27 12:54:43 大小:3.03 GB 文件数量:1 热度:11 最近下载:2025-03-10 16:27:05
    {"RARBG.txt": 30, "RARBG_DO_NOT_MIRROR.exe": 99, "NuruMassage.19.01.25.Kate.Kennedy.And.Sophia.Lux.Her.Bi-Curious.Secret.XXX.SD.MP4-KLEENEX.mp4": 352901232}
创建时间: 2019-01-27 13:01:04 大小:336.55 MB 文件数量:3 热度:16 最近下载:2025-07-30 04:05:02
    {"RARBG.txt": 30, "RARBG_DO_NOT_MIRROR.exe": 99, "Confessions.19.01.25.Karma.RX.Talk.About.Getting.A.Hole.In.One.XXX.SD.MP4-KLEENEX.mp4": 158334438}
创建时间: 2019-01-27 13:01:22 大小:151 MB 文件数量:3 热度:22 最近下载:2025-09-26 06:56:02
    {"gloryholesecrets.19.01.25.lexxxi.d.first.glory.hole[N1C].mp4": 2605580486}
创建时间: 2019-01-27 13:06:48 大小:2.43 GB 文件数量:1 热度:10 最近下载:2025-03-10 16:25:02
    {"RARBG.txt": 30, "RARBG_DO_NOT_MIRROR.exe": 99, "DaneJones.19.01.25.Melody.Petite.XXX.SD.MP4-KLEENEX.mp4": 188352732}
创建时间: 2019-01-27 13:08:59 大小:179.63 MB 文件数量:3 热度:13 最近下载:2025-03-10 16:27:02
    {"RARBG.txt": 30, "RARBG_DO_NOT_MIRROR.exe": 99, "21Naturals.19.01.25.Alyssia.Kent.A.Different.Pick-Me-Up.XXX.SD.MP4-KLEENEX.mp4": 250323182}
创建时间: 2019-01-27 13:13:39 大小:238.73 MB 文件数量:3 热度:18 最近下载:2025-05-02 18:23:02
    {"RARBG.txt": 30, "RARBG_DO_NOT_MIRROR.exe": 99, "Beauty4K.19.01.25.Nata.Ocean.XXX.REPACK.SD.MP4-KLEENEX.mp4": 282949935}
创建时间: 2019-01-27 13:14:46 大小:269.84 MB 文件数量:3 热度:18 最近下载:2025-06-13 06:46:01
    {"xsensual.19.01.25.gisha.forza.mp4": 203285804}
创建时间: 2019-01-27 13:17:54 大小:193.87 MB 文件数量:1 热度:22 最近下载:2025-08-09 03:19:03
    {"rawattack.19.01.25.jasmine.jae.mp4": 349628937}
创建时间: 2019-01-27 13:36:26 大小:333.43 MB 文件数量:1 热度:10 最近下载:2025-03-10 16:26:01
    {"realityjunkies.19.01.25.harmony.wonder.my.sister.my.slut.mp4": 183001783}
创建时间: 2019-01-27 13:41:11 大小:174.52 MB 文件数量:1 热度:9 最近下载:2025-08-15 11:35:01
    ... .19.01.25.Nata.Ocean.XXX.XviD-iPT Team.avi": 276366768, "Beauty4K.19.01.25.Nata ...
创建时间: 2019-01-27 13:41:40 大小:266.13 MB 文件数量:13 热度:13 最近下载:2025-06-13 06:46:01
    {"RARBG.txt": 30, "RARBG_DO_NOT_MIRROR.exe": 99, "PornMegaLoad.19.01.25.Serenity.Evans.One-On-One.XXX.SD.MP4-KLEENEX.mp4": 236109759}
创建时间: 2019-01-27 13:44:12 大小:225.17 MB 文件数量:3 热度:5 最近下载:2025-03-10 16:25:03
    {"RARBG.txt": 30, "RARBG_DO_NOT_MIRROR.exe": 99, "vivthomas.19.01.25.alyssa.reece.and.liza.billberry.pampered.mp4": 1735213836, "vivthomas.19.01.25.alyssa.reece.and.liza.billberry.pampered.nfo": 5213}
创建时间: 2019-01-27 13:45:50 大小:1.62 GB 文件数量:4 热度:13 最近下载:2025-03-10 16:27:05